sensor_id;sensor_type;location;lat;lon;timestamp;pressure;altitude;pressure_sealevel;temperature;humidity
64628;BME280;68467;50.960;0.314;2023-10-09T00:02:12;100503.73;;;16.68;100.00
64628;BME280;68467;50.960;0.314;2023-10-09T00:04:40;100503.99;;;16.75;100.00
64628;BME280;68467;50.960;0.314;2023-10-09T00:07:07;100499.81;;;17.01;100.00
64628;BME280;68467;50.960;0.314;2023-10-09T00:09:35;100497.19;;;16.47;100.00
64628;BME280;68467;50.960;0.314;2023-10-09T00:12:03;100502.00;;;16.47;100.00
64628;BME280;68467;50.960;0.314;2023-10-09T00:14:30;100503.66;;;16.63;100.00
64628;BME280;68467;50.960;0.314;2023-10-09T00:16:58;100501.85;;;16.03;100.00
64628;BME280;68467;50.960;0.314;2023-10-09T00:19:25;100502.06;;;16.14;100.00
64628;BME280;68467;50.960;0.314;2023-10-09T00:21:53;100498.36;;;16.52;100.00
64628;BME280;68467;50.960;0.314;2023-10-09T00:24:19;100500.31;;;16.73;100.00
64628;BME280;68467;50.960;0.314;2023-10-09T00:26:47;100499.51;;;16.19;100.00
64628;BME280;68467;50.960;0.314;2023-10-09T00:29:15;100498.74;;;16.46;100.00
64628;BME280;68467;50.960;0.314;2023-10-09T00:31:42;100497.76;;;16.90;100.00
64628;BME280;68467;50.960;0.314;2023-10-09T00:34:09;100496.29;;;16.73;100.00
64628;BME280;68467;50.960;0.314;2023-10-09T00:36:36;100494.24;;;16.86;100.00
64628;BME280;68467;50.960;0.314;2023-10-09T00:39:03;100495.70;;;16.79;100.00
64628;BME280;68467;50.960;0.314;2023-10-09T00:41:30;100491.57;;;16.56;100.00
64628;BME280;68467;50.960;0.314;2023-10-09T00:43:59;100487.00;;;17.22;100.00
64628;BME280;68467;50.960;0.314;2023-10-09T00:46:27;100482.34;;;17.18;100.00
64628;BME280;68467;50.960;0.314;2023-10-09T00:48:56;100479.59;;;17.44;100.00
64628;BME280;68467;50.960;0.314;2023-10-09T00:51:24;100476.45;;;17.04;100.00
64628;BME280;68467;50.960;0.314;2023-10-09T00:53:54;100475.84;;;17.34;100.00
64628;BME280;68467;50.960;0.314;2023-10-09T00:56:22;100469.00;;;16.69;100.00
64628;BME280;68467;50.960;0.314;2023-10-09T00:58:51;100466.32;;;17.20;100.00
64628;BME280;68467;50.960;0.314;2023-10-09T01:01:18;100465.42;;;17.42;100.00
64628;BME280;68467;50.960;0.314;2023-10-09T01:03:45;100467.12;;;17.11;100.00
64628;BME280;68467;50.960;0.314;2023-10-09T01:06:13;100471.69;;;17.01;100.00
64628;BME280;68467;50.960;0.314;2023-10-09T01:08:41;100473.19;;;17.09;100.00
64628;BME280;68467;50.960;0.314;2023-10-09T01:11:10;100470.72;;;17.21;100.00
64628;BME280;68467;50.960;0.314;2023-10-09T01:13:39;100477.08;;;16.90;100.00
64628;BME280;68467;50.960;0.314;2023-10-09T01:16:07;100476.54;;;16.51;100.00
64628;BME280;68467;50.960;0.314;2023-10-09T01:18:34;100471.66;;;16.43;100.00
64628;BME280;68467;50.960;0.314;2023-10-09T01:21:03;100470.62;;;16.85;100.00
64628;BME280;68467;50.960;0.314;2023-10-09T01:23:30;100468.03;;;16.50;100.00
64628;BME280;68467;50.960;0.314;2023-10-09T01:25:58;100471.43;;;16.20;100.00
64628;BME280;68467;50.960;0.314;2023-10-09T01:28:26;100478.05;;;16.06;100.00
64628;BME280;68467;50.960;0.314;2023-10-09T01:30:53;100481.79;;;16.36;100.00
64628;BME280;68467;50.960;0.314;2023-10-09T01:33:21;100480.39;;;16.45;100.00
64628;BME280;68467;50.960;0.314;2023-10-09T01:35:49;100475.96;;;16.88;100.00
64628;BME280;68467;50.960;0.314;2023-10-09T01:38:16;100470.33;;;16.38;100.00
64628;BME280;68467;50.960;0.314;2023-10-09T01:40:44;100464.98;;;16.46;100.00
64628;BME280;68467;50.960;0.314;2023-10-09T01:43:11;100468.30;;;16.92;100.00
64628;BME280;68467;50.960;0.314;2023-10-09T01:45:55;100466.82;;;16.60;100.00
64628;BME280;68467;50.960;0.314;2023-10-09T01:48:22;100467.15;;;17.06;100.00
64628;BME280;68467;50.960;0.314;2023-10-09T01:50:50;100468.69;;;16.96;100.00
64628;BME280;68467;50.960;0.314;2023-10-09T01:53:17;100469.00;;;16.34;100.00
64628;BME280;68467;50.960;0.314;2023-10-09T01:55:44;100467.25;;;16.95;100.00
64628;BME280;68467;50.960;0.314;2023-10-09T01:58:12;100474.36;;;16.43;100.00
64628;BME280;68467;50.960;0.314;2023-10-09T02:00:38;100476.87;;;16.67;100.00
64628;BME280;68467;50.960;0.314;2023-10-09T02:03:05;100476.63;;;16.94;100.00
64628;BME280;68467;50.960;0.314;2023-10-09T02:05:33;100477.60;;;16.75;100.00
64628;BME280;68467;50.960;0.314;2023-10-09T02:08:00;100473.12;;;16.29;100.00
64628;BME280;68467;50.960;0.314;2023-10-09T02:10:27;100470.94;;;16.46;100.00
64628;BME280;68467;50.960;0.314;2023-10-09T02:12:57;100466.41;;;16.68;100.00
64628;BME280;68467;50.960;0.314;2023-10-09T02:15:25;100456.25;;;16.87;100.00
64628;BME280;68467;50.960;0.314;2023-10-09T02:17:53;100456.17;;;17.09;100.00
64628;BME280;68467;50.960;0.314;2023-10-09T02:20:19;100454.94;;;16.91;100.00
64628;BME280;68467;50.960;0.314;2023-10-09T02:22:46;100455.27;;;17.56;100.00
64628;BME280;68467;50.960;0.314;2023-10-09T02:25:13;100459.68;;;17.42;100.00
64628;BME280;68467;50.960;0.314;2023-10-09T02:27:40;100455.25;;;17.41;100.00
64628;BME280;68467;50.960;0.314;2023-10-09T02:30:08;100454.83;;;17.36;100.00
64628;BME280;68467;50.960;0.314;2023-10-09T02:32:35;100455.44;;;17.68;100.00
64628;BME280;68467;50.960;0.314;2023-10-09T02:35:02;100453.57;;;17.92;100.00
64628;BME280;68467;50.960;0.314;2023-10-09T02:37:30;100455.97;;;17.90;100.00
64628;BME280;68467;50.960;0.314;2023-10-09T02:39:57;100454.49;;;17.80;100.00
64628;BME280;68467;50.960;0.314;2023-10-09T02:42:24;100451.67;;;17.81;100.00
64628;BME280;68467;50.960;0.314;2023-10-09T02:44:51;100450.58;;;17.98;100.00
64628;BME280;68467;50.960;0.314;2023-10-09T02:47:18;100440.96;;;17.81;100.00
64628;BME280;68467;50.960;0.314;2023-10-09T02:49:46;100439.24;;;18.68;100.00
64628;BME280;68467;50.960;0.314;2023-10-09T02:52:13;100432.74;;;19.15;100.00
64628;BME280;68467;50.960;0.314;2023-10-09T02:54:41;100432.34;;;18.05;100.00
64628;BME280;68467;50.960;0.314;2023-10-09T02:57:08;100429.87;;;19.02;100.00
64628;BME280;68467;50.960;0.314;2023-10-09T02:59:36;100429.04;;;19.37;100.00
64628;BME280;68467;50.960;0.314;2023-10-09T03:02:03;100432.94;;;19.50;100.00
64628;BME280;68467;50.960;0.314;2023-10-09T03:04:30;100432.87;;;19.25;100.00
64628;BME280;68467;50.960;0.314;2023-10-09T03:06:57;100428.61;;;18.95;100.00
64628;BME280;68467;50.960;0.314;2023-10-09T03:09:26;100428.28;;;18.60;100.00
64628;BME280;68467;50.960;0.314;2023-10-09T03:11:55;100424.87;;;18.89;100.00
64628;BME280;68467;50.960;0.314;2023-10-09T03:14:22;100424.27;;;18.95;100.00
64628;BME280;68467;50.960;0.314;2023-10-09T03:16:50;100418.88;;;18.18;100.00
64628;BME280;68467;50.960;0.314;2023-10-09T03:19:17;100420.61;;;18.16;100.00
64628;BME280;68467;50.960;0.314;2023-10-09T03:21:44;100422.86;;;17.76;100.00
64628;BME280;68467;50.960;0.314;2023-10-09T03:24:11;100421.44;;;17.46;100.00
64628;BME280;68467;50.960;0.314;2023-10-09T03:26:38;100419.19;;;17.24;100.00
64628;BME280;68467;50.960;0.314;2023-10-09T03:29:05;100420.02;;;17.62;100.00
64628;BME280;68467;50.960;0.314;2023-10-09T03:31:32;100422.72;;;16.65;100.00
64628;BME280;68467;50.960;0.314;2023-10-09T03:33:59;100424.20;;;16.46;100.00
64628;BME280;68467;50.960;0.314;2023-10-09T03:36:26;100425.52;;;16.91;100.00
64628;BME280;68467;50.960;0.314;2023-10-09T03:38:53;100426.36;;;16.45;100.00
64628;BME280;68467;50.960;0.314;2023-10-09T03:41:20;100425.17;;;17.07;100.00
64628;BME280;68467;50.960;0.314;2023-10-09T03:43:48;100423.80;;;16.32;100.00
64628;BME280;68467;50.960;0.314;2023-10-09T03:46:15;100424.99;;;16.05;100.00
64628;BME280;68467;50.960;0.314;2023-10-09T03:48:42;100421.70;;;15.97;100.00
64628;BME280;68467;50.960;0.314;2023-10-09T03:51:09;100420.42;;;15.92;100.00
64628;BME280;68467;50.960;0.314;2023-10-09T03:53:36;100420.14;;;16.01;100.00
64628;BME280;68467;50.960;0.314;2023-10-09T03:56:04;100419.43;;;15.89;100.00
64628;BME280;68467;50.960;0.314;2023-10-09T03:58:32;100420.24;;;16.45;100.00
64628;BME280;68467;50.960;0.314;2023-10-09T04:01:00;100422.26;;;15.86;100.00
64628;BME280;68467;50.960;0.314;2023-10-09T04:03:26;100420.94;;;15.96;100.00
64628;BME280;68467;50.960;0.314;2023-10-09T04:05:53;100422.72;;;16.01;100.00
64628;BME280;68467;50.960;0.314;2023-10-09T04:08:21;100424.79;;;15.59;100.00
64628;BME280;68467;50.960;0.314;2023-10-09T04:10:48;100424.10;;;15.41;100.00
64628;BME280;68467;50.960;0.314;2023-10-09T04:13:15;100417.67;;;15.42;100.00
64628;BME280;68467;50.960;0.314;2023-10-09T04:15:42;100414.90;;;15.71;100.00
64628;BME280;68467;50.960;0.314;2023-10-09T04:18:09;100412.45;;;15.36;100.00
64628;BME280;68467;50.960;0.314;2023-10-09T04:20:36;100415.04;;;15.36;100.00
64628;BME280;68467;50.960;0.314;2023-10-09T04:23:04;100417.40;;;15.26;100.00
64628;BME280;68467;50.960;0.314;2023-10-09T04:25:31;100419.52;;;15.29;100.00
64628;BME280;68467;50.960;0.314;2023-10-09T04:28:00;100422.51;;;15.63;100.00
64628;BME280;68467;50.960;0.314;2023-10-09T04:30:27;100425.13;;;15.38;100.00
64628;BME280;68467;50.960;0.314;2023-10-09T04:32:54;100425.72;;;15.84;100.00
64628;BME280;68467;50.960;0.314;2023-10-09T04:35:21;100422.98;;;15.49;100.00
64628;BME280;68467;50.960;0.314;2023-10-09T04:37:49;100423.54;;;15.66;100.00
64628;BME280;68467;50.960;0.314;2023-10-09T04:40:16;100420.71;;;15.93;100.00
64628;BME280;68467;50.960;0.314;2023-10-09T04:42:44;100426.08;;;15.34;100.00
64628;BME280;68467;50.960;0.314;2023-10-09T04:45:10;100424.95;;;16.16;100.00
64628;BME280;68467;50.960;0.314;2023-10-09T04:47:38;100423.25;;;15.80;100.00
64628;BME280;68467;50.960;0.314;2023-10-09T04:50:07;100420.56;;;15.99;100.00
64628;BME280;68467;50.960;0.314;2023-10-09T04:52:35;100416.66;;;16.40;100.00
64628;BME280;68467;50.960;0.314;2023-10-09T04:55:02;100414.50;;;16.36;100.00
64628;BME280;68467;50.960;0.314;2023-10-09T04:57:29;100415.09;;;15.63;100.00
64628;BME280;68467;50.960;0.314;2023-10-09T04:59:56;100413.26;;;16.52;100.00
64628;BME280;68467;50.960;0.314;2023-10-09T05:02:23;100409.70;;;16.73;100.00
64628;BME280;68467;50.960;0.314;2023-10-09T05:04:50;100409.35;;;16.87;100.00
64628;BME280;68467;50.960;0.314;2023-10-09T05:07:17;100410.41;;;16.75;100.00
64628;BME280;68467;50.960;0.314;2023-10-09T05:09:44;100410.31;;;16.60;100.00
64628;BME280;68467;50.960;0.314;2023-10-09T05:12:11;100411.26;;;16.67;100.00
64628;BME280;68467;50.960;0.314;2023-10-09T05:14:38;100412.57;;;16.89;100.00
64628;BME280;68467;50.960;0.314;2023-10-09T05:17:06;100416.63;;;16.93;100.00
64628;BME280;68467;50.960;0.314;2023-10-09T05:19:33;100419.76;;;17.26;100.00
64628;BME280;68467;50.960;0.314;2023-10-09T05:22:01;100426.35;;;16.72;100.00
64628;BME280;68467;50.960;0.314;2023-10-09T05:24:28;100427.51;;;17.25;100.00
64628;BME280;68467;50.960;0.314;2023-10-09T05:26:55;100424.47;;;17.23;100.00
64628;BME280;68467;50.960;0.314;2023-10-09T05:29:24;100425.94;;;17.32;100.00
64628;BME280;68467;50.960;0.314;2023-10-09T05:31:52;100426.73;;;17.62;100.00
64628;BME280;68467;50.960;0.314;2023-10-09T05:34:19;100426.58;;;17.31;100.00
64628;BME280;68467;50.960;0.314;2023-10-09T05:36:46;100428.56;;;17.94;100.00
64628;BME280;68467;50.960;0.314;2023-10-09T05:39:13;100427.80;;;17.53;100.00
64628;BME280;68467;50.960;0.314;2023-10-09T05:41:41;100423.98;;;17.93;100.00
64628;BME280;68467;50.960;0.314;2023-10-09T05:44:09;100416.38;;;17.30;100.00
64628;BME280;68467;50.960;0.314;2023-10-09T05:46:36;100413.31;;;17.64;100.00
64628;BME280;68467;50.960;0.314;2023-10-09T05:49:03;100418.57;;;18.11;100.00
64628;BME280;68467;50.960;0.314;2023-10-09T05:51:30;100419.85;;;17.46;100.00
64628;BME280;68467;50.960;0.314;2023-10-09T05:53:57;100421.30;;;18.16;100.00
64628;BME280;68467;50.960;0.314;2023-10-09T05:56:24;100430.03;;;17.55;100.00
64628;BME280;68467;50.960;0.314;2023-10-09T05:58:51;100439.31;;;17.26;100.00
64628;BME280;68467;50.960;0.314;2023-10-09T06:01:18;100444.66;;;17.89;100.00
64628;BME280;68467;50.960;0.314;2023-10-09T06:03:45;100443.75;;;18.03;100.00
64628;BME280;68467;50.960;0.314;2023-10-09T06:06:12;100441.38;;;17.66;100.00
64628;BME280;68467;50.960;0.314;2023-10-09T06:08:39;100441.20;;;17.45;100.00
64628;BME280;68467;50.960;0.314;2023-10-09T06:11:07;100439.39;;;17.33;100.00
64628;BME280;68467;50.960;0.314;2023-10-09T06:13:34;100438.93;;;17.59;100.00
64628;BME280;68467;50.960;0.314;2023-10-09T06:16:00;100443.88;;;17.33;100.00
64628;BME280;68467;50.960;0.314;2023-10-09T06:18:27;100451.15;;;17.34;100.00
64628;BME280;68467;50.960;0.314;2023-10-09T06:20:54;100446.98;;;17.81;100.00
64628;BME280;68467;50.960;0.314;2023-10-09T06:23:21;100445.37;;;17.60;100.00
64628;BME280;68467;50.960;0.314;2023-10-09T06:25:48;100453.38;;;17.53;100.00
64628;BME280;68467;50.960;0.314;2023-10-09T06:28:15;100450.28;;;16.73;100.00
64628;BME280;68467;50.960;0.314;2023-10-09T06:30:42;100451.54;;;17.18;100.00
64628;BME280;68467;50.960;0.314;2023-10-09T06:33:09;100452.65;;;17.27;100.00
64628;BME280;68467;50.960;0.314;2023-10-09T06:35:36;100460.81;;;18.50;100.00
64628;BME280;68467;50.960;0.314;2023-10-09T06:38:03;100472.73;;;18.64;100.00
64628;BME280;68467;50.960;0.314;2023-10-09T06:40:32;100474.80;;;18.70;100.00
64628;BME280;68467;50.960;0.314;2023-10-09T06:43:00;100475.75;;;17.54;100.00
64628;BME280;68467;50.960;0.314;2023-10-09T06:45:26;100476.80;;;18.60;100.00
64628;BME280;68467;50.960;0.314;2023-10-09T06:47:54;100470.67;;;17.36;100.00
64628;BME280;68467;50.960;0.314;2023-10-09T06:50:23;100467.41;;;18.24;100.00
64628;BME280;68467;50.960;0.314;2023-10-09T06:52:51;100468.94;;;18.24;100.00
64628;BME280;68467;50.960;0.314;2023-10-09T06:55:18;100467.41;;;18.28;100.00
64628;BME280;68467;50.960;0.314;2023-10-09T06:57:45;100459.13;;;17.23;100.00
64628;BME280;68467;50.960;0.314;2023-10-09T07:00:13;100452.97;;;17.57;100.00
64628;BME280;68467;50.960;0.314;2023-10-09T07:02:41;100451.09;;;17.00;100.00
64628;BME280;68467;50.960;0.314;2023-10-09T07:05:08;100450.24;;;16.16;100.00
64628;BME280;68467;50.960;0.314;2023-10-09T07:07:35;100452.65;;;17.36;100.00
64628;BME280;68467;50.960;0.314;2023-10-09T07:10:04;100459.06;;;17.55;100.00
64628;BME280;68467;50.960;0.314;2023-10-09T07:12:32;100458.73;;;18.59;100.00
64628;BME280;68467;50.960;0.314;2023-10-09T07:15:00;100462.10;;;18.52;100.00
64628;BME280;68467;50.960;0.314;2023-10-09T07:17:28;100465.31;;;18.76;100.00
64628;BME280;68467;50.960;0.314;2023-10-09T07:19:55;100469.75;;;18.65;100.00
64628;BME280;68467;50.960;0.314;2023-10-09T07:22:22;100475.98;;;18.51;100.00
64628;BME280;68467;50.960;0.314;2023-10-09T07:24:52;100476.49;;;18.54;100.00
64628;BME280;68467;50.960;0.314;2023-10-09T07:27:20;100467.98;;;17.58;100.00
64628;BME280;68467;50.960;0.314;2023-10-09T07:29:47;100470.28;;;18.76;100.00
64628;BME280;68467;50.960;0.314;2023-10-09T07:32:14;100468.30;;;18.89;100.00
64628;BME280;68467;50.960;0.314;2023-10-09T07:34:43;100462.86;;;18.71;100.00
64628;BME280;68467;50.960;0.314;2023-10-09T07:37:10;100470.65;;;18.70;100.00
64628;BME280;68467;50.960;0.314;2023-10-09T07:39:37;100477.06;;;17.75;100.00
64628;BME280;68467;50.960;0.314;2023-10-09T07:42:05;100489.16;;;18.17;100.00
64628;BME280;68467;50.960;0.314;2023-10-09T07:44:32;100487.76;;;18.41;100.00
64628;BME280;68467;50.960;0.314;2023-10-09T07:47:01;100489.23;;;18.35;100.00
64628;BME280;68467;50.960;0.314;2023-10-09T07:49:28;100497.73;;;18.26;100.00
64628;BME280;68467;50.960;0.314;2023-10-09T07:51:55;100484.56;;;17.71;100.00
64628;BME280;68467;50.960;0.314;2023-10-09T07:54:22;100485.49;;;18.21;100.00
64628;BME280;68467;50.960;0.314;2023-10-09T07:56:49;100495.25;;;18.65;100.00
64628;BME280;68467;50.960;0.314;2023-10-09T07:59:17;100499.24;;;18.76;100.00
64628;BME280;68467;50.960;0.314;2023-10-09T08:01:45;100505.36;;;18.42;100.00
64628;BME280;68467;50.960;0.314;2023-10-09T08:04:12;100507.00;;;19.02;100.00
64628;BME280;68467;50.960;0.314;2023-10-09T08:06:41;100495.53;;;18.98;100.00
64628;BME280;68467;50.960;0.314;2023-10-09T08:09:09;100491.98;;;19.35;100.00
64628;BME280;68467;50.960;0.314;2023-10-09T08:11:38;100494.83;;;18.75;100.00
64628;BME280;68467;50.960;0.314;2023-10-09T08:14:05;100506.76;;;19.67;100.00
64628;BME280;68467;50.960;0.314;2023-10-09T08:16:33;100507.54;;;18.75;100.00
64628;BME280;68467;50.960;0.314;2023-10-09T08:19:00;100499.61;;;19.25;100.00
64628;BME280;68467;50.960;0.314;2023-10-09T08:21:28;100485.79;;;19.31;100.00
64628;BME280;68467;50.960;0.314;2023-10-09T08:23:55;100486.42;;;19.77;100.00
64628;BME280;68467;50.960;0.314;2023-10-09T08:26:22;100502.38;;;19.29;100.00
64628;BME280;68467;50.960;0.314;2023-10-09T08:28:49;100498.23;;;19.72;100.00
64628;BME280;68467;50.960;0.314;2023-10-09T08:31:17;100482.77;;;19.02;100.00
64628;BME280;68467;50.960;0.314;2023-10-09T08:33:44;100469.65;;;19.95;100.00
64628;BME280;68467;50.960;0.314;2023-10-09T08:36:12;100477.41;;;20.21;100.00
64628;BME280;68467;50.960;0.314;2023-10-09T08:38:39;100501.71;;;19.03;100.00
64628;BME280;68467;50.960;0.314;2023-10-09T08:41:08;100507.19;;;19.25;100.00
64628;BME280;68467;50.960;0.314;2023-10-09T08:43:38;100493.41;;;20.17;100.00
64628;BME280;68467;50.960;0.314;2023-10-09T08:46:06;100492.75;;;19.80;100.00
64628;BME280;68467;50.960;0.314;2023-10-09T08:48:34;100480.86;;;20.07;100.00
64628;BME280;68467;50.960;0.314;2023-10-09T08:51:01;100472.27;;;20.20;100.00
64628;BME280;68467;50.960;0.314;2023-10-09T08:53:30;100494.95;;;20.26;100.00
64628;BME280;68467;50.960;0.314;2023-10-09T08:55:58;100515.36;;;19.53;100.00
64628;BME280;68467;50.960;0.314;2023-10-09T08:58:25;100512.13;;;19.72;100.00
64628;BME280;68467;50.960;0.314;2023-10-09T09:00:53;100505.19;;;20.06;100.00
64628;BME280;68467;50.960;0.314;2023-10-09T09:03:21;100496.09;;;19.35;100.00
64628;BME280;68467;50.960;0.314;2023-10-09T09:05:57;100489.23;;;19.46;100.00
64628;BME280;68467;50.960;0.314;2023-10-09T09:08:25;100489.00;;;20.52;100.00
64628;BME280;68467;50.960;0.314;2023-10-09T09:10:57;100505.09;;;20.39;100.00
64628;BME280;68467;50.960;0.314;2023-10-09T09:13:24;100496.74;;;20.43;100.00
64628;BME280;68467;50.960;0.314;2023-10-09T09:15:53;100506.14;;;20.26;100.00
64628;BME280;68467;50.960;0.314;2023-10-09T09:18:20;100506.16;;;19.67;100.00
64628;BME280;68467;50.960;0.314;2023-10-09T09:20:47;100496.18;;;20.51;100.00
64628;BME280;68467;50.960;0.314;2023-10-09T09:23:15;100511.03;;;20.00;100.00
64628;BME280;68467;50.960;0.314;2023-10-09T09:25:43;100503.06;;;19.76;100.00
64628;BME280;68467;50.960;0.314;2023-10-09T09:28:11;100508.77;;;19.51;100.00
64628;BME280;68467;50.960;0.314;2023-10-09T09:30:40;100514.82;;;19.36;100.00
64628;BME280;68467;50.960;0.314;2023-10-09T09:33:26;100502.69;;;19.90;100.00
64628;BME280;68467;50.960;0.314;2023-10-09T09:35:58;100505.56;;;19.28;100.00
64628;BME280;68467;50.960;0.314;2023-10-09T09:38:26;100511.87;;;19.78;100.00
64628;BME280;68467;50.960;0.314;2023-10-09T09:40:56;100512.15;;;19.66;100.00
64628;BME280;68467;50.960;0.314;2023-10-09T09:43:23;100504.35;;;19.43;100.00
64628;BME280;68467;50.960;0.314;2023-10-09T09:45:53;100490.69;;;19.73;100.00
64628;BME280;68467;50.960;0.314;2023-10-09T09:48:21;100491.51;;;19.86;100.00
64628;BME280;68467;50.960;0.314;2023-10-09T09:50:52;100498.81;;;19.95;100.00
64628;BME280;68467;50.960;0.314;2023-10-09T09:53:19;100515.10;;;20.05;100.00
64628;BME280;68467;50.960;0.314;2023-10-09T09:55:51;100506.66;;;19.83;100.00
64628;BME280;68467;50.960;0.314;2023-10-09T09:58:19;100495.75;;;20.42;100.00
64628;BME280;68467;50.960;0.314;2023-10-09T10:00:47;100517.47;;;20.52;100.00
64628;BME280;68467;50.960;0.314;2023-10-09T10:03:19;100517.84;;;19.81;100.00
64628;BME280;68467;50.960;0.314;2023-10-09T10:05:50;100508.69;;;20.20;100.00
64628;BME280;68467;50.960;0.314;2023-10-09T10:08:19;100515.26;;;19.90;100.00
64628;BME280;68467;50.960;0.314;2023-10-09T10:10:47;100507.14;;;19.82;100.00
64628;BME280;68467;50.960;0.314;2023-10-09T10:13:15;100500.35;;;20.23;100.00
64628;BME280;68467;50.960;0.314;2023-10-09T10:16:15;100497.16;;;20.53;100.00
64628;BME280;68467;50.960;0.314;2023-10-09T10:18:59;100485.15;;;20.60;100.00
64628;BME280;68467;50.960;0.314;2023-10-09T10:21:28;100477.91;;;20.77;100.00
64628;BME280;68467;50.960;0.314;2023-10-09T10:23:56;100471.62;;;20.30;100.00
64628;BME280;68467;50.960;0.314;2023-10-09T10:26:24;100470.09;;;20.85;100.00
64628;BME280;68467;50.960;0.314;2023-10-09T10:29:23;100473.68;;;20.87;100.00
64628;BME280;68467;50.960;0.314;2023-10-09T10:31:53;100478.71;;;20.50;100.00
64628;BME280;68467;50.960;0.314;2023-10-09T10:34:21;100483.05;;;20.06;100.00
64628;BME280;68467;50.960;0.314;2023-10-09T10:36:48;100483.32;;;20.68;100.00
64628;BME280;68467;50.960;0.314;2023-10-09T10:39:15;100488.68;;;21.48;100.00
64628;BME280;68467;50.960;0.314;2023-10-09T10:41:53;100493.55;;;20.94;100.00
64628;BME280;68467;50.960;0.314;2023-10-09T10:44:28;100487.22;;;20.41;100.00
64628;BME280;68467;50.960;0.314;2023-10-09T10:46:56;100494.93;;;20.92;100.00
64628;BME280;68467;50.960;0.314;2023-10-09T10:49:23;100517.65;;;21.27;100.00
64628;BME280;68467;50.960;0.314;2023-10-09T10:51:50;100520.05;;;21.30;100.00
64628;BME280;68467;50.960;0.314;2023-10-09T10:54:21;100506.65;;;21.27;100.00
64628;BME280;68467;50.960;0.314;2023-10-09T10:56:49;100504.58;;;20.96;100.00
64628;BME280;68467;50.960;0.314;2023-10-09T10:59:17;100494.05;;;20.37;100.00
64628;BME280;68467;50.960;0.314;2023-10-09T11:01:45;100490.33;;;21.07;100.00
64628;BME280;68467;50.960;0.314;2023-10-09T11:04:12;100494.37;;;21.75;100.00
64628;BME280;68467;50.960;0.314;2023-10-09T11:06:40;100501.78;;;21.80;100.00
64628;BME280;68467;50.960;0.314;2023-10-09T11:09:08;100502.61;;;22.67;100.00
64628;BME280;68467;50.960;0.314;2023-10-09T11:11:36;100486.04;;;22.39;100.00
64628;BME280;68467;50.960;0.314;2023-10-09T11:14:11;100475.55;;;22.39;100.00
64628;BME280;68467;50.960;0.314;2023-10-09T11:16:38;100470.39;;;21.96;100.00
64628;BME280;68467;50.960;0.314;2023-10-09T11:19:05;100468.62;;;22.06;100.00
64628;BME280;68467;50.960;0.314;2023-10-09T11:21:32;100470.21;;;22.47;100.00
64628;BME280;68467;50.960;0.314;2023-10-09T11:24:00;100473.13;;;21.88;100.00
64628;BME280;68467;50.960;0.314;2023-10-09T11:26:28;100463.69;;;22.23;100.00
64628;BME280;68467;50.960;0.314;2023-10-09T11:29:12;100469.15;;;22.26;100.00
64628;BME280;68467;50.960;0.314;2023-10-09T11:31:39;100470.02;;;22.50;100.00
64628;BME280;68467;50.960;0.314;2023-10-09T11:34:18;100460.93;;;22.63;100.00
64628;BME280;68467;50.960;0.314;2023-10-09T11:36:45;100458.57;;;22.47;100.00
64628;BME280;68467;50.960;0.314;2023-10-09T11:39:25;100448.34;;;23.24;100.00
64628;BME280;68467;50.960;0.314;2023-10-09T11:42:00;100445.92;;;23.11;100.00
64628;BME280;68467;50.960;0.314;2023-10-09T11:44:35;100458.62;;;23.31;100.00
64628;BME280;68467;50.960;0.314;2023-10-09T11:47:03;100464.37;;;23.88;100.00
64628;BME280;68467;50.960;0.314;2023-10-09T11:49:30;100462.80;;;24.48;100.00
64628;BME280;68467;50.960;0.314;2023-10-09T11:52:07;100451.67;;;24.12;100.00
64628;BME280;68467;50.960;0.314;2023-10-09T11:54:35;100449.47;;;24.53;100.00
64628;BME280;68467;50.960;0.314;2023-10-09T11:57:03;100456.65;;;24.28;100.00
64628;BME280;68467;50.960;0.314;2023-10-09T11:59:31;100454.29;;;24.60;99.95
64628;BME280;68467;50.960;0.314;2023-10-09T12:01:59;100458.34;;;24.29;100.00
64628;BME280;68467;50.960;0.314;2023-10-09T12:04:27;100456.83;;;24.18;99.65
64628;BME280;68467;50.960;0.314;2023-10-09T12:06:54;100453.90;;;23.94;100.00
64628;BME280;68467;50.960;0.314;2023-10-09T12:09:22;100447.06;;;24.65;99.72
64628;BME280;68467;50.960;0.314;2023-10-09T12:11:49;100446.90;;;24.96;100.00
64628;BME280;68467;50.960;0.314;2023-10-09T12:14:16;100448.47;;;24.09;100.00
64628;BME280;68467;50.960;0.314;2023-10-09T12:16:42;100444.88;;;24.76;100.00
64628;BME280;68467;50.960;0.314;2023-10-09T12:19:09;100449.00;;;24.83;100.00
64628;BME280;68467;50.960;0.314;2023-10-09T12:21:36;100448.48;;;24.23;99.72
64628;BME280;68467;50.960;0.314;2023-10-09T12:24:04;100454.68;;;24.92;97.64
64628;BME280;68467;50.960;0.314;2023-10-09T12:26:31;100450.02;;;25.41;97.70
64628;BME280;68467;50.960;0.314;2023-10-09T12:28:58;100448.78;;;25.48;96.91
64628;BME280;68467;50.960;0.314;2023-10-09T12:31:25;100445.58;;;25.81;96.30
64628;BME280;68467;50.960;0.314;2023-10-09T12:33:53;100438.29;;;26.16;96.54
64628;BME280;68467;50.960;0.314;2023-10-09T12:36:20;100429.69;;;26.79;96.04
64628;BME280;68467;50.960;0.314;2023-10-09T12:38:49;100426.28;;;26.99;95.64
64628;BME280;68467;50.960;0.314;2023-10-09T12:41:16;100426.21;;;26.82;96.10
64628;BME280;68467;50.960;0.314;2023-10-09T12:43:43;100423.99;;;26.50;95.77
64628;BME280;68467;50.960;0.314;2023-10-09T12:46:10;100417.35;;;26.08;96.98